Time;durP1;ratioP1;P1;durP2;ratioP2;P2;SDS_P1;SDS_P2;PMS_P1;PMS_P2;Temp;Humidity;BMP_temperature;BMP_pressure;BME280_temperature;BME280_humidity;BME280_pressure;Samples;Min_cycle;Max_cycle;Signal;HPM_P1;HPM_P2
2021/05/11 17:17:35;;;;;;;5.95;3.92;;;13.00;99.90;;;;;;5124517;27;20318;-75
2021/05/11 17:20:00;;;;;;;6.18;3.95;;;14.20;99.90;;;;;;5125235;28;20442;-75
2021/05/11 17:22:26;;;;;;;5.30;3.67;;;13.20;99.90;;;;;;5107364;28;20118;-74
2021/05/11 17:24:52;;;;;;;4.63;3.58;;;13.10;99.90;;;;;;5104880;28;20038;-76
2021/05/11 17:27:18;;;;;;;4.32;3.35;;;13.20;99.90;;;;;;5124601;28;20070;-75
2021/05/11 17:29:44;;;;;;;6.38;3.17;;;13.20;99.90;;;;;;5122740;28;20466;-75
2021/05/11 17:32:12;;;;;;;5.30;3.22;;;13.20;99.90;;;;;;5124335;27;20028;-76
2021/05/11 17:34:38;;;;;;;5.13;3.20;;;13.30;99.90;;;;;;5125092;27;20034;-76
2021/05/11 17:37:06;;;;;;;4.40;2.47;;;13.40;99.90;;;;;;5125026;27;20050;-77
2021/05/11 17:39:32;;;;;;;3.67;2.83;;;13.80;99.90;;;;;;5125392;27;20537;-77
2021/05/11 17:41:58;;;;;;;5.50;2.28;;;13.30;99.90;;;;;;5111408;27;20028;-77
2021/05/11 17:44:24;;;;;;;5.53;2.50;;;13.20;99.90;;;;;;5108338;28;20027;-78
2021/05/11 17:46:49;;;;;;;6.35;2.10;;;13.10;99.90;;;;;;5106662;28;20736;-77
2021/05/11 17:49:15;;;;;;;3.30;2.13;;;13.30;99.90;;;;;;5106843;28;20035;-76
2021/05/11 17:51:40;;;;;;;2.58;2.17;;;13.30;99.90;;;;;;5113999;28;20395;-75
2021/05/11 17:54:06;;;;;;;3.08;2.20;;;13.30;99.90;;;;;;5128588;27;20035;-76
2021/05/11 17:56:32;;;;;;;4.90;2.30;;;13.10;99.90;;;;;;5128372;27;20437;-76
2021/05/11 17:58:59;;;;;;;2.85;2.20;;;13.00;99.90;;;;;;5126864;27;20042;-75
2021/05/11 18:01:24;;;;;;;2.08;1.65;;;13.00;99.90;;;;;;5127569;27;20042;-75
2021/05/11 18:03:52;;;;;;;4.13;2.05;;;13.00;99.90;;;;;;5121586;27;20036;-75
2021/05/11 18:06:18;;;;;;;2.92;1.88;;;12.90;99.90;;;;;;5107982;28;20032;-75
2021/05/11 18:08:44;;;;;;;3.85;1.75;;;12.90;99.90;;;;;;5111855;28;20028;-73
2021/05/11 18:11:09;;;;;;;2.53;1.60;;;13.10;99.90;;;;;;5127925;27;20502;-74
2021/05/11 18:13:35;;;;;;;1.83;1.40;;;12.90;99.90;;;;;;5123387;27;20549;-75
2021/05/11 18:16:03;;;;;;;2.65;1.40;;;12.90;99.90;;;;;;5107243;28;20036;-73
2021/05/11 18:18:28;;;;;;;1.50;1.30;;;12.90;99.90;;;;;;5111316;28;20488;-74
2021/05/11 18:20:54;;;;;;;1.83;1.42;;;12.90;99.90;;;;;;5127804;27;20054;-72
2021/05/11 18:23:20;;;;;;;2.55;1.40;;;13.70;99.90;;;;;;5124408;28;20019;-73
2021/05/11 18:25:46;;;;;;;1.45;1.15;;;12.90;99.90;;;;;;5107579;28;20476;-72
2021/05/11 18:28:11;;;;;;;1.52;1.00;;;12.80;99.90;;;;;;5098932;28;20820;-73
2021/05/11 18:30:37;;;;;;;3.72;1.30;;;12.80;99.90;;;;;;5113431;28;20042;-73
2021/05/11 18:33:03;;;;;;;2.75;1.85;;;12.80;99.90;;;;;;5113814;27;20039;-76
2021/05/11 18:35:30;;;;;;;2.85;1.20;;;12.70;99.90;;;;;;5093954;28;20115;-76
2021/05/11 18:38:04;;;;;;;1.60;1.10;;;12.70;99.90;;;;;;5093874;28;20016;-77
2021/05/11 18:40:30;;;;;;;2.15;1.20;;;12.80;99.90;;;;;;5093945;28;20024;-77
2021/05/11 18:42:56;;;;;;;3.25;1.50;;;12.70;99.90;;;;;;5094213;28;20039;-76
2021/05/11 18:45:22;;;;;;;2.78;1.30;;;14.00;99.90;;;;;;5112904;28;20028;-75
2021/05/11 18:47:58;;;;;;;3.25;1.20;;;12.80;99.90;;;;;;5114028;28;20153;-76
2021/05/11 18:50:33;;;;;;;3.70;1.10;;;12.70;99.90;;;;;;5092445;28;20031;-76
2021/05/11 18:53:00;;;;;;;2.05;1.13;;;12.50;99.90;;;;;;5093433;28;20103;-76
2021/05/11 18:55:26;;;;;;;1.60;1.20;;;12.90;99.90;;;;;;5113323;28;20077;-76
2021/05/11 18:57:52;;;;;;;2.58;1.50;;;12.80;99.90;;;;;;5114080;28;20024;-76
2021/05/11 19:00:19;;;;;;;1.50;1.40;;;13.20;99.90;;;;;;5094707;28;20386;-76
2021/05/11 19:02:45;;;;;;;3.55;1.70;;;12.50;99.90;;;;;;5097582;28;20028;-76
2021/05/11 19:05:12;;;;;;;3.30;2.13;;;12.40;99.90;;;;;;5095914;28;20035;-76
2021/05/11 19:07:38;;;;;;;2.75;2.05;;;12.50;99.90;;;;;;5093095;28;20029;-77
2021/05/11 19:10:06;;;;;;;2.83;2.22;;;12.20;99.90;;;;;;5106734;28;20477;-76
2021/05/11 19:12:33;;;;;;;2.35;1.77;;;12.40;99.90;;;;;;5112181;28;20043;-76
2021/05/11 19:14:59;;;;;;;4.07;2.00;;;12.60;99.90;;;;;;5096966;28;20028;-76
2021/05/11 19:17:24;;;;;;;3.38;1.92;;;13.50;99.90;;;;;;5091405;28;20044;-76
2021/05/11 19:19:50;;;;;;;3.00;2.20;;;13.30;99.90;;;;;;5107079;28;20031;-77
2021/05/11 19:22:16;;;;;;;4.03;2.03;;;13.90;99.90;;;;;;5112040;28;20058;-77
2021/05/11 19:24:43;;;;;;;2.75;2.08;;;12.30;99.90;;;;;;5098952;28;20029;-76
2021/05/11 19:27:08;;;;;;;2.95;2.20;;;12.50;99.90;;;;;;5092747;28;20103;-75
2021/05/11 19:29:35;;;;;;;4.22;2.30;;;12.30;99.90;;;;;;5101949;28;20140;-76
2021/05/11 19:32:01;;;;;;;5.97;3.10;;;12.90;99.90;;;;;;5112958;28;20404;-76
2021/05/11 19:34:27;;;;;;;5.93;2.25;;;12.30;99.90;;;;;;5097415;28;20032;-78
2021/05/11 19:36:54;;;;;;;6.18;2.08;;;12.40;99.90;;;;;;5103347;28;20054;-77
2021/05/11 19:39:20;;;;;;;6.15;1.90;;;12.40;99.90;;;;;;5110624;28;20121;-77
2021/05/11 19:41:47;;;;;;;3.38;2.03;;;14.10;99.90;;;;;;5113302;27;20078;-76
2021/05/11 19:44:18;;;;;;;2.00;1.70;;;12.20;99.90;;;;;;5111658;28;20478;-76
2021/05/11 19:46:45;;;;;;;3.72;2.28;;;12.20;99.90;;;;;;5112792;28;20387;-76
2021/05/11 19:49:11;;;;;;;4.35;2.35;;;12.20;99.90;;;;;;5105879;28;20032;-75
2021/05/11 19:51:37;;;;;;;2.47;1.85;;;12.30;99.90;;;;;;5113319;28;20055;-76
2021/05/11 19:54:04;;;;;;;3.28;2.28;;;13.30;99.90;;;;;;5111960;28;20054;-76
2021/05/11 19:56:29;;;;;;;3.15;2.25;;;12.20;99.90;;;;;;5094703;28;20076;-76
2021/05/11 19:58:55;;;;;;;7.07;2.50;;;12.20;99.90;;;;;;5110849;28;20429;-77
2021/05/11 20:01:21;;;;;;;4.35;2.60;;;12.30;99.90;;;;;;5112012;28;20019;-76
2021/05/11 20:03:47;;;;;;;4.65;2.80;;;13.10;99.90;;;;;;5112444;28;20361;-77
2021/05/11 20:06:13;;;;;;;2.88;2.42;;;13.40;99.90;;;;;;5111727;28;20027;-77
2021/05/11 20:08:39;;;;;;;5.00;2.53;;;13.10;99.90;;;;;;5107457;28;20031;-76
2021/05/11 20:11:06;;;;;;;3.90;2.47;;;12.40;99.90;;;;;;5101696;28;20027;-76
2021/05/11 20:13:32;;;;;;;5.35;3.35;;;12.90;99.90;;;;;;5108803;28;20027;-77
2021/05/11 20:16:00;;;;;;;5.47;3.15;;;13.40;99.90;;;;;;5111386;28;20385;-77
2021/05/11 20:18:26;;;;;;;6.05;3.35;;;12.20;99.90;;;;;;5112376;28;20047;-77
2021/05/11 20:20:51;;;;;;;5.18;2.88;;;12.20;99.90;;;;;;5111062;28;20016;-77
2021/05/11 20:23:17;;;;;;;5.63;3.08;;;13.50;99.90;;;;;;5111923;28;20492;-77
2021/05/11 20:25:44;;;;;;;4.13;3.10;;;12.20;99.90;;;;;;5113821;28;20047;-77
2021/05/11 20:28:14;;;;;;;4.93;3.55;;;12.40;99.90;;;;;;5112206;28;20537;-77
2021/05/11 20:30:40;;;;;;;6.28;3.40;;;12.40;99.90;;;;;;5111543;28;20063;-77
2021/05/11 20:33:05;;;;;;;5.25;3.50;;;12.30;99.90;;;;;;5110503;28;20496;-77
2021/05/11 20:35:32;;;;;;;4.15;3.15;;;13.50;99.90;;;;;;5111056;28;20031;-77
2021/05/11 20:38:00;;;;;;;3.80;3.40;;;12.50;99.90;;;;;;5111573;28;20506;-77
2021/05/11 20:40:29;;;;;;;5.85;4.35;;;12.30;99.90;;;;;;5110132;28;20069;-77
2021/05/11 20:42:56;;;;;;;5.70;3.10;;;12.30;99.90;;;;;;5112841;28;20082;-76
2021/05/11 20:45:22;;;;;;;9.00;3.40;;;12.30;99.90;;;;;;5114339;28;20031;-77
2021/05/11 20:47:57;;;;;;;6.35;3.28;;;12.60;99.90;;;;;;5119208;28;20020;-76
2021/05/11 20:50:31;;;;;;;4.82;3.40;;;12.40;99.90;;;;;;5118971;28;20076;-76
2021/05/11 20:52:59;;;;;;;4.35;2.90;;;12.40;99.90;;;;;;5120052;28;20031;-76
2021/05/11 20:55:26;;;;;;;4.13;3.00;;;12.60;99.90;;;;;;5117200;28;20503;-77
2021/05/11 20:57:51;;;;;;;5.28;3.03;;;13.00;99.90;;;;;;5113052;28;20094;-77
2021/05/11 21:00:18;;;;;;;4.32;3.40;;;12.60;99.90;;;;;;5109811;28;20587;-77
2021/05/11 21:02:43;;;;;;;4.80;3.05;;;12.40;99.90;;;;;;5111769;28;20050;-76
2021/05/11 21:05:11;;;;;;;4.43;3.28;;;13.20;99.90;;;;;;5113600;28;20488;-76
2021/05/11 21:07:37;;;;;;;4.53;3.38;;;12.50;99.90;;;;;;5113268;28;20027;-77
2021/05/11 21:10:03;;;;;;;5.28;3.60;;;12.60;99.90;;;;;;5094980;28;20035;-76
2021/05/11 21:12:31;;;;;;;5.93;3.58;;;12.40;99.90;;;;;;5091959;28;20115;-76
2021/05/11 21:14:58;;;;;;;4.93;3.97;;;12.70;99.90;;;;;;5107329;28;20063;-76
2021/05/11 21:17:24;;;;;;;4.82;3.83;;;12.60;99.90;;;;;;5111881;28;20031;-76
2021/05/11 21:19:51;;;;;;;5.55;4.22;;;13.70;99.90;;;;;;5096711;28;20028;-76
2021/05/11 21:22:17;;;;;;;5.22;3.92;;;13.40;99.90;;;;;;5074066;28;20024;-76
2021/05/11 21:24:43;;;;;;;7.35;4.50;;;12.40;99.90;;;;;;5105380;28;20453;-76
2021/05/11 21:27:11;;;;;;;5.93;4.57;;;12.40;99.90;;;;;;5112083;28;20106;-76
2021/05/11 21:29:40;;;;;;;6.47;5.07;;;12.30;99.90;;;;;;5098479;28;20032;-77
2021/05/11 21:32:06;;;;;;;9.35;4.72;;;12.60;99.90;;;;;;5098900;28;20028;-76
2021/05/11 21:34:33;;;;;;;7.45;4.72;;;12.40;99.90;;;;;;5099451;28;20111;-76
2021/05/11 21:36:59;;;;;;;6.50;4.80;;;12.70;99.90;;;;;;5091752;28;20050;-75
2021/05/11 21:39:25;;;;;;;6.38;5.13;;;12.30;99.90;;;;;;5102530;28;20106;-75
2021/05/11 21:41:53;;;;;;;7.22;5.68;;;12.70;99.90;;;;;;5111656;28;20076;-75
2021/05/11 21:44:22;;;;;;;6.65;5.32;;;12.40;99.90;;;;;;5101466;28;20052;-76
2021/05/11 21:46:48;;;;;;;10.70;5.40;;;12.40;99.90;;;;;;5091467;28;20024;-76
2021/05/11 21:49:15;;;;;;;8.30;5.80;;;12.40;99.90;;;;;;5099742;28;20035;-76
2021/05/11 21:51:42;;;;;;;8.02;4.97;;;13.10;99.90;;;;;;5111551;28;20042;-76
2021/05/11 21:54:08;;;;;;;9.00;5.57;;;12.60;99.90;;;;;;5103398;28;20388;-76
2021/05/11 21:56:34;;;;;;;6.60;5.72;;;12.40;99.90;;;;;;5091608;28;20028;-76
2021/05/11 21:59:00;;;;;;;7.72;5.85;;;13.00;99.90;;;;;;5097849;28;20024;-76
2021/05/11 22:01:26;;;;;;;8.38;5.82;;;12.70;99.90;;;;;;5111097;28;20496;-76
2021/05/11 22:03:52;;;;;;;8.85;6.60;;;12.60;99.90;;;;;;5108013;28;20028;-76
2021/05/11 22:06:19;;;;;;;6.93;5.70;;;12.60;99.90;;;;;;5095292;28;20058;-76
2021/05/11 22:08:44;;;;;;;8.60;6.13;;;12.90;99.90;;;;;;5100353;28;20059;-76
2021/05/11 22:11:10;;;;;;;9.43;6.80;;;12.20;99.90;;;;;;5114997;28;20094;-76
2021/05/11 22:13:36;;;;;;;9.27;6.40;;;12.40;99.90;;;;;;5110845;27;20077;-76
2021/05/11 22:16:01;;;;;;;12.70;6.75;;;12.40;99.90;;;;;;5094848;28;20051;-76
2021/05/11 22:18:27;;;;;;;9.43;6.50;;;12.40;99.90;;;;;;5098107;28;20035;-75
2021/05/11 22:20:53;;;;;;;7.85;7.03;;;12.50;99.90;;;;;;5113505;28;20102;-75
2021/05/11 22:26:42;;;;;;;10.20;6.95;;;12.40;99.90;;;;;;5094795;28;20077;-75
2021/05/11 22:29:08;;;;;;;16.90;6.78;;;12.40;99.90;;;;;;5093453;28;20024;-75
2021/05/11 22:31:35;;;;;;;11.38;7.28;;;12.40;99.90;;;;;;5094073;28;20031;-74
2021/05/11 22:34:02;;;;;;;11.48;7.35;;;12.70;99.90;;;;;;5094692;28;20032;-74
2021/05/11 22:36:28;;;;;;;10.18;7.30;;;12.50;99.90;;;;;;5094576;28;20373;-74
2021/05/11 22:38:55;;;;;;;10.65;8.00;;;12.50;99.90;;;;;;5094652;28;20021;-75
2021/05/11 22:41:21;;;;;;;11.23;9.13;;;12.50;99.90;;;;;;5093918;28;20027;-74
2021/05/11 22:43:52;;;;;;;9.52;7.93;;;12.70;99.90;;;;;;5101950;28;20030;-75
2021/05/11 22:46:18;;;;;;;13.57;8.82;;;12.40;99.90;;;;;;5114707;28;20515;-74
2021/05/11 22:48:43;;;;;;;15.15;8.95;;;12.50;99.90;;;;;;5114810;28;20036;-74
2021/05/11 22:51:09;;;;;;;10.90;8.57;;;12.40;99.90;;;;;;5114200;28;20384;-76
2021/05/11 22:53:36;;;;;;;10.20;8.38;;;12.70;99.90;;;;;;5097144;28;20032;-76
2021/05/11 22:56:02;;;;;;;12.40;9.23;;;12.40;99.90;;;;;;5101877;28;20524;-76
2021/05/11 22:58:29;;;;;;;11.07;8.77;;;12.50;99.90;;;;;;5114632;27;20028;-77
2021/05/11 23:00:56;;;;;;;13.13;9.10;;;12.60;99.90;;;;;;5113881;28;20024;-77
2021/05/11 23:03:22;;;;;;;11.52;9.40;;;13.30;99.90;;;;;;5114268;28;20494;-77
2021/05/11 23:05:48;;;;;;;15.15;10.02;;;13.20;99.90;;;;;;5114595;28;20036;-77
2021/05/11 23:08:14;;;;;;;11.93;9.25;;;12.40;99.90;;;;;;5114683;28;20044;-77
2021/05/11 23:10:40;;;;;;;12.32;9.05;;;12.40;99.90;;;;;;5114045;28;20127;-77
2021/05/11 23:13:07;;;;;;;14.93;10.15;;;12.50;99.90;;;;;;5114275;28;20511;-77
